Time,TemperatureF,DewpointF,PressureIn,WindDirection,WindDirectionDegrees,WindSpeedMPH,WindSpeedGustMPH,Humidity,HourlyPrecipIn,Conditions,Clouds,dailyrainin,SoftwareType,DateUTC
2013-10-02 00:12:00,55.9,55.4,29.89,NNW,337,0.0,-999.0,98,-99.99,,,0.00,Acu-Link.com,2013-10-02 04:12:00,
2013-10-02 00:27:00,55.8,55.2,29.87,NNW,337,0.0,-999.0,98,-99.99,,,0.00,Acu-Link.com,2013-10-02 04:27:00,
2013-10-02 00:42:00,55.8,55.2,29.87,NNW,337,0.0,-999.0,98,-99.99,,,0.00,Acu-Link.com,2013-10-02 04:42:00,
2013-10-02 00:57:00,56.3,55.7,29.87,NNW,337,0.0,-999.0,98,-99.99,,,0.00,Acu-Link.com,2013-10-02 04:57:00,
2013-10-02 01:12:00,56.7,56.1,29.86,SE,135,1.6,-999.0,98,-99.99,,,0.00,Acu-Link.com,2013-10-02 05:12:00,
2013-10-02 01:28:00,56.8,56.3,29.86,South,180,1.6,-999.0,98,-99.99,,,0.00,Acu-Link.com,2013-10-02 05:28:00,
2013-10-02 01:44:00,57.0,56.5,29.86,SE,135,1.6,-999.0,98,-99.99,,,0.00,Acu-Link.com,2013-10-02 05:44:00,
2013-10-02 01:59:00,57.0,56.5,29.86,WSW,247,0.0,-999.0,98,-99.99,,,0.00,Acu-Link.com,2013-10-02 05:59:00,
2013-10-02 02:14:00,57.4,56.8,29.86,SW,225,0.0,-999.0,98,-99.99,,,0.00,Acu-Link.com,2013-10-02 06:14:00,
2013-10-02 02:30:00,57.2,56.6,29.86,South,180,0.0,-999.0,98,-99.99,,,0.00,Acu-Link.com,2013-10-02 06:30:00,
2013-10-02 02:45:00,57.2,56.6,29.85,SW,225,2.7,-999.0,98,-99.99,,,0.00,Acu-Link.com,2013-10-02 06:45:00,
2013-10-02 03:01:00,57.4,56.8,29.86,North,0,0.0,-999.0,98,-99.99,,,0.00,Acu-Link.com,2013-10-02 07:01:00,
2013-10-02 03:16:00,57.2,56.6,29.86,NNW,337,0.0,-999.0,98,-99.99,,,0.00,Acu-Link.com,2013-10-02 07:16:00,
2013-10-02 03:31:00,57.6,57.0,29.84,SW,225,0.0,-999.0,98,-99.99,,,0.00,Acu-Link.com,2013-10-02 07:31:00,
2013-10-02 03:46:00,57.6,57.0,29.84,South,180,1.6,-999.0,98,-99.99,,,0.00,Acu-Link.com,2013-10-02 07:46:00,
2013-10-02 04:01:00,57.6,57.0,29.84,SW,225,1.6,-999.0,98,-99.99,,,0.00,Acu-Link.com,2013-10-02 08:01:00,
2013-10-02 04:16:00,57.7,57.2,29.84,North,0,0.0,-999.0,98,-99.99,,,0.00,Acu-Link.com,2013-10-02 08:16:00,
2013-10-02 04:31:00,57.7,57.2,29.84,SW,225,1.6,-999.0,98,-99.99,,,0.00,Acu-Link.com,2013-10-02 08:31:00,
2013-10-02 04:47:00,57.9,57.4,29.84,SSE,157,0.0,-999.0,98,-99.99,,,0.00,Acu-Link.com,2013-10-02 08:47:00,
2013-10-02 05:02:00,57.9,57.4,29.83,ESE,112,0.0,-999.0,98,-99.99,,,0.00,Acu-Link.com,2013-10-02 09:02:00,
2013-10-02 05:18:00,57.7,57.2,29.83,North,0,0.0,-999.0,98,-99.99,,,0.00,Acu-Link.com,2013-10-02 09:18:00,
2013-10-02 05:33:00,58.5,57.9,29.83,NNW,337,0.0,-999.0,98,-99.99,,,0.00,Acu-Link.com,2013-10-02 09:33:00,
2013-10-02 05:48:00,58.6,58.1,29.84,NNW,337,0.0,-999.0,98,-99.99,,,0.00,Acu-Link.com,2013-10-02 09:48:00,
2013-10-02 06:03:00,58.6,58.1,29.85,NNW,337,0.0,-999.0,98,-99.99,,,0.00,Acu-Link.com,2013-10-02 10:03:00,
2013-10-02 06:19:00,58.6,58.1,29.85,NNW,337,0.0,-999.0,98,-99.99,,,0.00,Acu-Link.com,2013-10-02 10:19:00,
2013-10-02 06:34:00,58.8,58.3,29.85,West,270,0.0,-999.0,98,-99.99,,,0.00,Acu-Link.com,2013-10-02 10:34:00,
2013-10-02 06:49:00,58.8,58.3,29.86,SSE,157,0.0,-999.0,98,-99.99,,,0.00,Acu-Link.com,2013-10-02 10:49:00,
2013-10-02 07:04:00,58.8,58.3,29.86,SW,225,0.0,-999.0,98,-99.99,,,0.00,Acu-Link.com,2013-10-02 11:04:00,
2013-10-02 07:19:00,59.0,58.4,29.86,South,180,0.0,-999.0,98,-99.99,,,0.00,Acu-Link.com,2013-10-02 11:19:00,
2013-10-02 07:35:00,59.0,58.4,29.86,WSW,247,0.0,-999.0,98,-99.99,,,0.00,Acu-Link.com,2013-10-02 11:35:00,
2013-10-02 07:50:00,59.4,58.8,29.87,SSE,157,1.1,-999.0,98,-99.99,,,0.00,Acu-Link.com,2013-10-02 11:50:00,
2013-10-02 08:05:00,59.5,59.0,29.85,North,0,0.0,-999.0,98,-99.99,,,0.00,Acu-Link.com,2013-10-02 12:05:00,
2013-10-02 08:20:00,59.9,59.3,29.86,SE,135,0.0,-999.0,98,-99.99,,,0.00,Acu-Link.com,2013-10-02 12:20:00,
2013-10-02 08:35:00,60.3,59.7,29.86,SW,225,0.0,-999.0,98,-99.99,,,0.00,Acu-Link.com,2013-10-02 12:35:00,
2013-10-02 08:51:00,61.0,60.4,29.87,SSW,202,0.0,-999.0,98,-99.99,,,0.00,Acu-Link.com,2013-10-02 12:51:00,
2013-10-02 09:06:00,61.3,60.8,29.87,SSW,202,0.0,-999.0,98,-99.99,,,0.00,Acu-Link.com,2013-10-02 13:06:00,
2013-10-02 09:21:00,62.2,59.9,29.87,SW,225,2.2,-999.0,92,-99.99,,,0.00,Acu-Link.com,2013-10-02 13:21:00,
2013-10-02 09:36:00,63.1,59.8,29.88,SW,225,0.0,-999.0,89,-99.99,,,0.00,Acu-Link.com,2013-10-02 13:36:00,
2013-10-02 09:51:00,64.2,59.3,29.87,SSW,202,2.7,-999.0,84,-99.99,,,0.00,Acu-Link.com,2013-10-02 13:51:00,
2013-10-02 10:07:00,65.3,57.5,29.89,ENE,67,2.7,-999.0,76,-99.99,,,0.00,Acu-Link.com,2013-10-02 14:07:00,
2013-10-02 10:22:00,66.7,58.2,29.88,East,90,0.0,-999.0,74,-99.99,,,0.00,Acu-Link.com,2013-10-02 14:22:00,
2013-10-02 10:37:00,68.0,57.8,29.87,SSW,202,3.1,-999.0,70,-99.99,,,0.00,Acu-Link.com,2013-10-02 14:37:00,
2013-10-02 10:52:00,69.6,58.2,29.87,SW,225,2.2,-999.0,67,-99.99,,,0.00,Acu-Link.com,2013-10-02 14:52:00,
2013-10-02 11:07:00,70.2,55.2,29.87,SSW,202,2.7,-999.0,59,-99.99,,,0.00,Acu-Link.com,2013-10-02 15:07:00,
2013-10-02 11:23:00,72.0,54.4,29.87,ESE,112,3.1,-999.0,54,-99.99,,,0.00,Acu-Link.com,2013-10-02 15:23:00,
2013-10-02 11:38:00,71.6,50.3,29.87,WSW,247,2.2,-999.0,47,-99.99,,,0.00,Acu-Link.com,2013-10-02 15:38:00,
2013-10-02 11:53:00,72.9,49.0,29.86,SSW,202,2.7,-999.0,43,-99.99,,,0.00,Acu-Link.com,2013-10-02 15:53:00,
2013-10-02 12:08:00,72.3,47.9,29.86,South,180,5.1,-999.0,42,-99.99,,,0.00,Acu-Link.com,2013-10-02 16:08:00,
2013-10-02 12:23:00,72.7,46.3,29.86,SSE,157,4.3,-999.0,39,-99.99,,,0.00,Acu-Link.com,2013-10-02 16:23:00,
2013-10-02 12:39:00,72.7,43.4,29.86,SSW,202,2.7,-999.0,35,-99.99,,,0.00,Acu-Link.com,2013-10-02 16:39:00,
2013-10-02 12:54:00,74.3,44.9,29.86,ESE,112,0.0,-999.0,35,-99.99,,,0.00,Acu-Link.com,2013-10-02 16:54:00,
2013-10-02 13:09:00,75.2,41.6,29.86,West,270,1.6,-999.0,30,-99.99,,,0.00,Acu-Link.com,2013-10-02 17:09:00,
2013-10-02 13:24:00,75.9,41.4,29.86,SW,225,5.8,-999.0,29,-99.99,,,0.00,Acu-Link.com,2013-10-02 17:24:00,
2013-10-02 13:39:00,74.5,41.0,29.85,South,180,2.7,-999.0,30,-99.99,,,0.00,Acu-Link.com,2013-10-02 17:39:00,
2013-10-02 13:55:00,74.5,41.9,29.85,East,90,1.6,-999.0,31,-99.99,,,0.00,Acu-Link.com,2013-10-02 17:55:00,
2013-10-02 14:10:00,73.9,43.0,29.85,SSW,202,4.7,-999.0,33,-99.99,,,0.00,Acu-Link.com,2013-10-02 18:10:00,
2013-10-02 14:25:00,73.0,41.4,29.86,SSE,157,1.6,-999.0,32,-99.99,,,0.00,Acu-Link.com,2013-10-02 18:25:00,
2013-10-02 14:40:00,74.1,39.8,29.86,South,180,0.0,-999.0,29,-99.99,,,0.00,Acu-Link.com,2013-10-02 18:40:00,
2013-10-02 14:55:00,73.8,40.4,29.86,SSE,157,3.8,-999.0,30,-99.99,,,0.00,Acu-Link.com,2013-10-02 18:55:00,
2013-10-02 15:11:00,73.0,41.4,29.86,South,180,3.1,-999.0,32,-99.99,,,0.00,Acu-Link.com,2013-10-02 19:11:00,
2013-10-02 15:26:00,72.1,39.0,29.86,SSW,202,4.3,-999.0,30,-99.99,,,0.00,Acu-Link.com,2013-10-02 19:26:00,
2013-10-02 15:41:00,72.1,40.6,29.87,SSE,157,0.0,-999.0,32,-99.99,,,0.00,Acu-Link.com,2013-10-02 19:41:00,
2013-10-02 15:56:00,72.1,41.4,29.87,South,180,1.1,-999.0,33,-99.99,,,0.00,Acu-Link.com,2013-10-02 19:56:00,
2013-10-02 16:11:00,72.0,40.5,29.86,ESE,112,0.0,-999.0,32,-99.99,,,0.00,Acu-Link.com,2013-10-02 20:11:00,
2013-10-02 16:27:00,71.8,40.3,29.87,ESE,112,0.0,-999.0,32,-99.99,,,0.00,Acu-Link.com,2013-10-02 20:27:00,
2013-10-02 16:42:00,71.1,41.3,29.87,SSE,157,0.0,-999.0,34,-99.99,,,0.00,Acu-Link.com,2013-10-02 20:42:00,
2013-10-02 16:57:00,70.2,38.9,29.88,NW,315,0.0,-999.0,32,-99.99,,,0.00,Acu-Link.com,2013-10-02 20:57:00,
2013-10-02 17:12:00,69.6,40.7,29.89,SW,225,2.7,-999.0,35,-99.99,,,0.00,Acu-Link.com,2013-10-02 21:12:00,
2013-10-02 17:27:00,68.7,41.4,29.89,SW,225,0.0,-999.0,37,-99.99,,,0.00,Acu-Link.com,2013-10-02 21:27:00,
2013-10-02 17:43:00,68.2,40.2,29.89,SSW,202,0.0,-999.0,36,-99.99,,,0.00,Acu-Link.com,2013-10-02 21:43:00,
2013-10-02 17:58:00,67.3,40.8,29.89,NW,315,0.0,-999.0,38,-99.99,,,0.00,Acu-Link.com,2013-10-02 21:58:00,
2013-10-02 18:13:00,66.4,42.6,29.90,North,0,0.0,-999.0,42,-99.99,,,0.00,Acu-Link.com,2013-10-02 22:13:00,
2013-10-02 18:28:00,65.7,43.1,29.90,NNW,337,0.0,-999.0,44,-99.99,,,0.00,Acu-Link.com,2013-10-02 22:28:00,
2013-10-02 18:43:00,64.6,41.6,29.91,SW,225,0.0,-999.0,43,-99.99,,,0.00,Acu-Link.com,2013-10-02 22:43:00,
2013-10-02 18:58:00,63.7,41.4,29.91,SW,225,0.0,-999.0,44,-99.99,,,0.00,Acu-Link.com,2013-10-02 22:58:00,
2013-10-02 19:14:00,62.8,41.1,29.91,SW,225,0.0,-999.0,45,-99.99,,,0.00,Acu-Link.com,2013-10-02 23:14:00,
2013-10-02 19:29:00,61.7,40.7,29.93,SW,225,0.0,-999.0,46,-99.99,,,0.00,Acu-Link.com,2013-10-02 23:29:00,
2013-10-02 19:44:00,60.8,41.0,29.93,WSW,247,0.0,-999.0,48,-99.99,,,0.00,Acu-Link.com,2013-10-02 23:44:00,
2013-10-02 19:59:00,60.3,40.5,29.93,WSW,247,0.0,-999.0,48,-99.99,,,0.00,Acu-Link.com,2013-10-02 23:59:00,
2013-10-02 20:14:00,59.7,41.6,29.94,NNW,337,0.0,-999.0,51,-99.99,,,0.00,Acu-Link.com,2013-10-03 00:14:00,
2013-10-02 20:29:00,59.0,40.9,29.95,NNW,337,0.0,-999.0,51,-99.99,,,0.00,Acu-Link.com,2013-10-03 00:29:00,
2013-10-02 20:44:00,59.0,40.9,29.95,SW,225,2.2,-999.0,51,-99.99,,,0.00,Acu-Link.com,2013-10-03 00:44:00,
2013-10-02 21:00:00,58.6,40.6,29.96,WSW,247,0.0,-999.0,51,-99.99,,,0.00,Acu-Link.com,2013-10-03 01:00:00,
2013-10-02 21:15:00,58.8,40.7,29.96,SSW,202,0.0,-999.0,51,-99.99,,,0.00,Acu-Link.com,2013-10-03 01:15:00,
2013-10-02 21:30:00,59.2,41.1,29.96,West,270,0.0,-999.0,51,-99.99,,,0.00,Acu-Link.com,2013-10-03 01:30:00,
2013-10-02 21:45:00,59.7,40.0,29.97,SSE,157,0.0,-999.0,48,-99.99,,,0.00,Acu-Link.com,2013-10-03 01:45:00,
2013-10-02 22:00:00,60.1,40.9,29.97,North,0,0.0,-999.0,49,-99.99,,,0.00,Acu-Link.com,2013-10-03 02:00:00,
2013-10-02 22:16:00,59.5,40.9,29.98,North,0,0.0,-999.0,50,-99.99,,,0.00,Acu-Link.com,2013-10-03 02:16:00,
2013-10-02 22:31:00,59.4,41.2,29.98,North,0,0.0,-999.0,51,-99.99,,,0.00,Acu-Link.com,2013-10-03 02:31:00,
2013-10-02 22:46:00,58.6,41.1,29.99,North,0,0.0,-999.0,52,-99.99,,,0.00,Acu-Link.com,2013-10-03 02:46:00,
2013-10-02 23:01:00,57.7,41.2,29.99,North,0,0.0,-999.0,54,-99.99,,,0.00,Acu-Link.com,2013-10-03 03:01:00,
2013-10-02 23:16:00,56.3,41.7,30.00,North,0,0.0,-999.0,58,-99.99,,,0.00,Acu-Link.com,2013-10-03 03:16:00,
2013-10-02 23:32:00,55.9,41.4,30.01,North,0,0.0,-999.0,58,-99.99,,,0.00,Acu-Link.com,2013-10-03 03:32:00,
2013-10-02 23:47:00,55.6,41.5,30.01,North,0,0.0,-999.0,59,-99.99,,,0.00,Acu-Link.com,2013-10-03 03:47:00,